Time;durP1;ratioP1;P1;durP2;ratioP2;P2;SDS_P1;SDS_P2;PMS_P1;PMS_P2;Temp;Humidity;BMP_temperature;BMP_pressure;BME280_temperature;BME280_humidity;BME280_pressure;Samples;Min_cycle;Max_cycle;Signal;HPM_P1;HPM_P2
2021/12/16 00:02:09;;;;;;;;;;;;;;;19.33;36.91;101892.08;96669;1422;74246;-81
2021/12/16 00:08:52;;;;;;;;;;;;;;;;;;;;;
2021/12/16 00:36:17;;;;;;;;;;;;;;;;;;;;;
2021/12/16 01:03:09;;;;;;;;;;;;;;;;;;;;;
2021/12/16 01:51:00;;;;;;;;;;;;;;;19.22;37.15;101872.09;96993;1415;59850;-82
2021/12/16 02:01:11;;;;;;;;;;;;;;;;;;;;;
2021/12/16 02:04:54;;;;;;;;;;;;;;;19.21;37.11;101870.55;97006;1413;59826;-82
2021/12/16 02:42:38;;;;;;;;;;;;;;;19.17;37.21;101855.16;97727;1402;72097;-81
2021/12/16 02:56:00;;;;;;;;;;;;;;;19.16;37.25;101853.59;97275;1413;72486;-82
2021/12/16 02:58:51;;;;;;;;;;;;;;;;;;;;;
2021/12/16 03:05:43;;;;;;;;;;;;;;;19.16;37.27;101857.55;97308;1413;74284;-82
2021/12/16 03:08:44;;;;;;;;;;;;;;;19.16;37.19;101857.73;97492;1411;72096;-82
2021/12/16 03:19:02;;;;;;;;;;;;;;;;;;;;;
2021/12/16 03:49:50;;;;;;;;;;;;;;;19.12;37.25;101877.71;100443;1368;61156;-82
2021/12/16 03:53:16;;;;;;;;;;;;;;;;;;;;;
2021/12/16 03:56:55;;;;;;;;;;;;;;;;;;;;;
2021/12/16 04:00:03;;;;;;;;;;;;;;;;;;;;;
2021/12/16 04:06:54;;;;;;;;;;;;;;;;;;;;;
2021/12/16 04:10:12;;;;;;;;;;;;;;;19.11;37.25;101861.89;98381;1397;71504;-81
2021/12/16 04:13:54;;;;;;;;;;;;;;;19.10;37.25;101860.12;97865;1403;72718;-83
2021/12/16 04:16:44;;;;;;;;;;;;;;;19.09;37.20;101861.60;97249;1408;59558;-81
2021/12/16 04:20:00;;;;;;;;;;;;;;;;;;;;;
2021/12/16 04:23:27;;;;;;;;;;;;;;;19.09;37.30;101854.82;96768;1415;73110;-83
2021/12/16 04:26:54;;;;;;;;;;;;;;;19.08;37.26;101855.93;96898;1418;74559;-83
2021/12/16 04:33:36;;;;;;;;;;;;;;;;;;;;;
2021/12/16 04:37:05;;;;;;;;;;;;;;;;;;;;;
2021/12/16 04:40:20;;;;;;;;;;;;;;;19.08;37.21;101851.86;97463;1406;73423;-82
2021/12/16 04:43:32;;;;;;;;;;;;;;;;;;;;;
2021/12/16 04:50:23;;;;;;;;;;;;;;;;;;;;;
2021/12/16 04:54:03;;;;;;;;;;;;;;;19.06;37.04;101855.83;98059;1402;72074;-83
2021/12/16 05:00:15;;;;;;;;;;;;;;;;;;;;;
2021/12/16 05:06:59;;;;;;;;;;;;;;;;;;;;;
2021/12/16 05:14:05;;;;;;;;;;;;;;;19.04;36.93;101853.96;96995;1411;60952;-83
2021/12/16 05:17:20;;;;;;;;;;;;;;;19.04;37.02;101855.03;97232;1413;71669;-82
2021/12/16 05:20:33;;;;;;;;;;;;;;;19.04;37.00;101860.21;97287;1413;72172;-83
2021/12/16 05:30:45;;;;;;;;;;;;;;;;;;;;;
2021/12/16 05:34:07;;;;;;;;;;;;;;;;;;;;;
2021/12/16 05:37:09;;;;;;;;;;;;;;;;;;;;;
2021/12/16 05:43:29;;;;;;;;;;;;;;;18.99;36.43;101851.91;97026;1407;73995;-82
2021/12/16 05:46:08;;;;;;;;;;;;;;;18.96;36.51;101851.48;97480;1406;73255;-81
2021/12/16 05:48:48;;;;;;;;;;;;;;;18.94;36.39;101848.55;98236;1398;61273;-82
2021/12/16 05:51:34;;;;;;;;;;;;;;;18.92;36.32;101849.88;98097;1398;61083;-81
2021/12/16 05:54:08;;;;;;;;;;;;;;;18.90;36.30;101848.02;98316;1393;72510;-81
2021/12/16 05:56:57;;;;;;;;;;;;;;;18.87;36.16;101855.08;98478;1389;72350;-81
2021/12/16 05:59:32;;;;;;;;;;;;;;;18.85;36.14;101855.70;98748;1389;62068;-81
2021/12/16 06:02:02;;;;;;;;;;;;;;;18.82;36.05;101862.98;98792;1386;62261;-82
2021/12/16 06:04:33;;;;;;;;;;;;;;;18.78;36.09;101865.28;98814;1386;73468;-81
2021/12/16 06:07:09;;;;;;;;;;;;;;;18.77;36.00;101871.58;99096;1374;73917;-81
2021/12/16 06:13:28;;;;;;;;;;;;;;;18.81;35.97;101873.20;99181;1384;60648;-83
2021/12/16 06:28:46;;;;;;;;;;;;;;;19.03;35.87;101879.55;100894;1363;72759;-78
2021/12/16 06:31:52;;;;;;;;;;;;;;;;;;;;;
2021/12/16 06:34:18;;;;;;;;;;;;;;;19.15;35.78;101883.99;100980;1362;61079;-80
2021/12/16 06:36:54;;;;;;;;;;;;;;;;;;;;;
2021/12/16 06:39:20;;;;;;;;;;;;;;;19.26;35.75;101889.00;101196;1362;72545;-80
2021/12/16 06:42:42;;;;;;;;;;;;;;;19.32;35.76;101890.15;100988;1365;59738;-79
2021/12/16 06:44:56;;;;;;;;;;;;;;;19.39;35.64;101887.86;100993;1359;60298;-80
2021/12/16 06:47:46;;;;;;;;;;;;;;;19.45;35.75;101892.96;101181;1352;60458;-79
2021/12/16 06:50:54;;;;;;;;;;;;;;;;;;;;;
2021/12/16 06:53:27;;;;;;;;;;;;;;;19.57;35.68;101894.38;102167;1350;73009;-80
2021/12/16 06:56:11;;;;;;;;;;;;;;;19.59;35.74;101892.44;101656;1350;60256;-81
2021/12/16 06:58:43;;;;;;;;;;;;;;;19.57;35.46;101892.39;101816;1349;60891;-80
2021/12/16 07:01:40;;;;;;;;;;;;;;;19.52;35.54;101895.67;101745;1355;71942;-82
2021/12/16 07:04:12;;;;;;;;;;;;;;;19.45;35.51;101893.31;102302;1350;73348;-81
2021/12/16 07:06:41;;;;;;;;;;;;;;;19.43;35.51;101886.09;101728;1350;61562;-80
2021/12/16 07:09:11;;;;;;;;;;;;;;;19.45;35.48;101886.52;101750;1350;61167;-82
2021/12/16 07:11:41;;;;;;;;;;;;;;;19.48;35.48;101887.48;101834;1350;73822;-81
2021/12/16 07:14:12;;;;;;;;;;;;;;;19.51;35.45;101886.77;101632;1353;74100;-80
2021/12/16 07:16:47;;;;;;;;;;;;;;;19.55;35.48;101883.23;102430;1356;61354;-81
2021/12/16 07:19:13;;;;;;;;;;;;;;;19.58;35.36;101881.83;102630;1353;61798;-81
2021/12/16 07:21:39;;;;;;;;;;;;;;;19.63;35.37;101877.66;101757;1354;57652;-80
2021/12/16 07:24:09;;;;;;;;;;;;;;;19.67;35.35;101884.06;101664;1349;59784;-80
2021/12/16 07:26:53;;;;;;;;;;;;;;;;;;;;;
2021/12/16 07:29:24;;;;;;;;;;;;;;;19.75;35.46;101879.77;101450;1354;60416;-82
2021/12/16 07:32:14;;;;;;;;;;;;;;;19.78;35.45;101876.38;101282;1351;73970;-81
2021/12/16 07:34:50;;;;;;;;;;;;;;;19.82;35.46;101873.36;101351;1350;72752;-81
2021/12/16 07:37:20;;;;;;;;;;;;;;;19.85;35.31;101879.81;101326;1354;60083;-79
2021/12/16 07:39:50;;;;;;;;;;;;;;;19.86;35.22;101879.05;101413;1353;61586;-80
2021/12/16 07:45:18;;;;;;;;;;;;;;;19.85;35.36;101880.90;100831;1356;73131;-80
2021/12/16 07:47:55;;;;;;;;;;;;;;;19.86;35.35;101879.59;101476;1353;59962;-81
2021/12/16 07:50:31;;;;;;;;;;;;;;;19.88;35.31;101879.85;101611;1350;60372;-80
2021/12/16 07:53:17;;;;;;;;;;;;;;;19.90;35.44;101880.64;101140;1350;73716;-80
2021/12/16 07:55:43;;;;;;;;;;;;;;;19.85;35.35;101874.80;101410;1349;73208;-79
2021/12/16 07:58:11;;;;;;;;;;;;;;;19.75;35.43;101872.94;101564;1350;61569;-82
2021/12/16 08:00:48;;;;;;;;;;;;;;;19.66;35.47;101874.83;101229;1350;59735;-81
2021/12/16 08:03:38;;;;;;;;;;;;;;;19.62;35.55;101873.98;101114;1350;71397;-82
2021/12/16 08:06:09;;;;;;;;;;;;;;;19.62;35.71;101878.04;101081;1354;74468;-81
2021/12/16 08:08:47;;;;;;;;;;;;;;;19.64;35.86;101873.86;101176;1350;61018;-82
2021/12/16 08:11:17;;;;;;;;;;;;;;;19.66;36.06;101874.98;101232;1349;61568;-80
2021/12/16 08:13:49;;;;;;;;;;;;;;;19.70;35.97;101878.38;101296;1353;72937;-79
2021/12/16 08:16:22;;;;;;;;;;;;;;;19.74;36.03;101877.98;101232;1349;72348;-80
2021/12/16 08:18:51;;;;;;;;;;;;;;;19.79;36.29;101879.73;102637;1350;60511;-80
2021/12/16 08:21:31;;;;;;;;;;;;;;;19.83;36.28;101880.28;101698;1354;61824;-80
2021/12/16 08:23:57;;;;;;;;;;;;;;;19.87;36.35;101880.80;101335;1353;74043;-80
2021/12/16 08:26:32;;;;;;;;;;;;;;;19.91;36.35;101881.48;101342;1349;59593;-79
2021/12/16 08:29:38;;;;;;;;;;;;;;;19.96;36.31;101882.88;101312;1350;61580;-80
2021/12/16 08:32:11;;;;;;;;;;;;;;;19.98;36.21;101883.33;101713;1354;60477;-80
2021/12/16 08:34:45;;;;;;;;;;;;;;;20.00;36.33;101883.39;101671;1351;72957;-80
2021/12/16 08:37:14;;;;;;;;;;;;;;;20.02;36.23;101884.17;101685;1350;73881;-81
2021/12/16 08:39:52;;;;;;;;;;;;;;;;;;;;;
2021/12/16 08:42:21;;;;;;;;;;;;;;;20.05;36.45;101887.41;101630;1356;61469;-81
2021/12/16 08:44:49;;;;;;;;;;;;;;;20.06;36.41;101890.74;101436;1354;60530;-80
2021/12/16 08:47:48;;;;;;;;;;;;;;;;;;;;;
2021/12/16 08:50:15;;;;;;;;;;;;;;;20.09;36.44;101890.79;102584;1350;61790;-81
2021/12/16 08:52:46;;;;;;;;;;;;;;;20.11;36.51;101889.09;101883;1351;62531;-82
2021/12/16 08:55:14;;;;;;;;;;;;;;;20.11;36.47;101885.16;101647;1348;73964;-81
2021/12/16 08:57:45;;;;;;;;;;;;;;;20.12;36.69;101884.95;101662;1350;73013;-80
2021/12/16 09:00:20;;;;;;;;;;;;;;;20.09;36.58;101884.72;101745;1349;60254;-80
2021/12/16 09:02:49;;;;;;;;;;;;;;;20.06;36.59;101885.95;101671;1349;60433;-81
2021/12/16 09:05:21;;;;;;;;;;;;;;;20.05;36.74;101887.78;101433;1349;72452;-80
2021/12/16 09:08:29;;;;;;;;;;;;;;;;;;;;;
2021/12/16 09:10:56;;;;;;;;;;;;;;;20.07;36.84;101890.01;102656;1352;59586;-81
2021/12/16 09:13:24;;;;;;;;;;;;;;;20.09;36.85;101891.52;102381;1354;60609;-80
2021/12/16 09:15:53;;;;;;;;;;;;;;;20.12;36.73;101895.48;101317;1355;73998;-80
2021/12/16 09:18:22;;;;;;;;;;;;;;;20.15;36.87;101894.80;101494;1349;75315;-80
2021/12/16 09:21:13;;;;;;;;;;;;;;;20.17;36.92;101893.60;101484;1351;60413;-80
2021/12/16 09:23:50;;;;;;;;;;;;;;;;;;;;;
2021/12/16 09:26:32;;;;;;;;;;;;;;;20.19;36.58;101890.30;101632;1354;73933;-82
2021/12/16 09:29:18;;;;;;;;;;;;;;;20.19;36.39;101891.73;101718;1353;73176;-80
2021/12/16 09:32:07;;;;;;;;;;;;;;;20.19;36.35;101892.61;101416;1350;60543;-80
2021/12/16 09:34:43;;;;;;;;;;;;;;;;;;;;;
2021/12/16 09:37:14;;;;;;;;;;;;;;;20.19;36.31;101886.71;101612;1350;72706;-80
2021/12/16 09:40:07;;;;;;;;;;;;;;;;;;;;;
2021/12/16 09:43:03;;;;;;;;;;;;;;;20.24;36.38;101881.30;101342;1356;60463;-81
2021/12/16 09:46:00;;;;;;;;;;;;;;;20.24;36.32;101880.20;101261;1355;60526;-81
2021/12/16 09:48:35;;;;;;;;;;;;;;;20.26;36.39;101881.71;101293;1360;73900;-81
2021/12/16 09:51:16;;;;;;;;;;;;;;;20.30;36.27;101878.68;101052;1358;73882;-81
2021/12/16 09:53:52;;;;;;;;;;;;;;;20.29;36.12;101879.64;101164;1357;60490;-81
2021/12/16 09:56:22;;;;;;;;;;;;;;;20.20;36.02;101880.96;101235;1354;60350;-82
2021/12/16 09:59:15;;;;;;;;;;;;;;;20.10;36.07;101878.21;101247;1355;73809;-82
2021/12/16 10:01:44;;;;;;;;;;;;;;;20.00;36.09;101873.37;101211;1356;74316;-81
2021/12/16 10:04:13;;;;;;;;;;;;;;;19.92;35.98;101867.85;101294;1361;60476;-81
2021/12/16 10:07:00;;;;;;;;;;;;;;;;;;;;;
2021/12/16 10:09:30;;;;;;;;;;;;;;;19.75;35.77;101867.22;101173;1354;72819;-79
2021/12/16 10:11:58;;;;;;;;;;;;;;;19.65;35.69;101860.59;101277;1361;74785;-81
2021/12/16 10:14:43;;;;;;;;;;;;;;;;;;;;;
2021/12/16 10:17:24;;;;;;;;;;;;;;;19.52;35.93;101857.63;101109;1362;60550;-80
2021/12/16 10:19:56;;;;;;;;;;;;;;;19.52;35.88;101855.48;101135;1357;72928;-81
2021/12/16 10:22:24;;;;;;;;;;;;;;;19.53;35.85;101849.20;101862;1362;74381;-81
2021/12/16 10:24:50;;;;;;;;;;;;;;;19.58;35.83;101853.05;102265;1358;59199;-81
2021/12/16 10:27:20;;;;;;;;;;;;;;;19.59;35.75;101855.31;102250;1355;58796;-82
2021/12/16 10:29:56;;;;;;;;;;;;;;;19.57;35.75;101851.12;101615;1355;72565;-80
2021/12/16 10:32:52;;;;;;;;;;;;;;;19.53;35.66;101848.33;101382;1355;73957;-81
2021/12/16 10:35:31;;;;;;;;;;;;;;;19.49;35.59;101846.20;101410;1356;59100;-81
2021/12/16 10:38:01;;;;;;;;;;;;;;;19.44;35.44;101845.88;102243;1355;60783;-80
2021/12/16 10:40:43;;;;;;;;;;;;;;;;;;;;;
2021/12/16 10:43:34;;;;;;;;;;;;;;;;;;;;;
2021/12/16 10:46:27;;;;;;;;;;;;;;;19.38;35.34;101837.94;101279;1359;60562;-83
2021/12/16 10:49:10;;;;;;;;;;;;;;;19.39;35.33;101845.94;101284;1359;60381;-81
2021/12/16 10:51:56;;;;;;;;;;;;;;;19.37;35.31;101852.63;101196;1360;72698;-82
2021/12/16 10:54:42;;;;;;;;;;;;;;;19.33;35.54;101846.38;101207;1356;73972;-80
2021/12/16 10:57:11;;;;;;;;;;;;;;;19.29;35.52;101847.49;101497;1359;60033;-81
2021/12/16 10:59:58;;;;;;;;;;;;;;;19.28;35.96;101848.27;102095;1355;59150;-81
2021/12/16 11:02:27;;;;;;;;;;;;;;;19.27;35.85;101848.46;101999;1353;73886;-81
2021/12/16 11:04:55;;;;;;;;;;;;;;;19.28;36.08;101850.01;102171;1354;72972;-81
2021/12/16 11:07:21;;;;;;;;;;;;;;;19.28;36.04;101847.01;102115;1356;59399;-80
2021/12/16 11:09:49;;;;;;;;;;;;;;;19.27;35.96;101847.93;102201;1359;58570;-81
2021/12/16 11:12:17;;;;;;;;;;;;;;;19.27;35.99;101847.56;102124;1355;74285;-79
2021/12/16 11:15:05;;;;;;;;;;;;;;;19.28;36.04;101845.54;102095;1355;74216;-81
2021/12/16 11:17:32;;;;;;;;;;;;;;;19.31;36.03;101838.99;102182;1358;59715;-81
2021/12/16 11:20:30;;;;;;;;;;;;;;;19.31;35.95;101832.18;102074;1355;61531;-81
2021/12/16 11:22:58;;;;;;;;;;;;;;;19.32;36.00;101830.39;101596;1366;72912;-81
2021/12/16 11:25:28;;;;;;;;;;;;;;;19.32;36.01;101825.73;101545;1367;74090;-81
2021/12/16 11:27:55;;;;;;;;;;;;;;;19.32;35.97;101822.34;101690;1366;59361;-81
2021/12/16 11:30:35;;;;;;;;;;;;;;;19.31;35.90;101820.97;101646;1363;60469;-82
2021/12/16 11:33:10;;;;;;;;;;;;;;;19.29;35.75;101823.40;101625;1361;72833;-81
2021/12/16 11:35:40;;;;;;;;;;;;;;;19.24;35.71;101827.70;101854;1359;73689;-81
2021/12/16 11:38:13;;;;;;;;;;;;;;;19.21;35.62;101832.13;101241;1359;60372;-81
2021/12/16 11:41:18;;;;;;;;;;;;;;;19.20;35.64;101831.66;101065;1359;59619;-81
2021/12/16 11:44:01;;;;;;;;;;;;;;;19.18;35.67;101824.06;101292;1359;72944;-81
2021/12/16 11:46:49;;;;;;;;;;;;;;;;;;;;;
2021/12/16 11:49:29;;;;;;;;;;;;;;;19.20;35.55;101827.19;101255;1359;59256;-80
2021/12/16 11:52:13;;;;;;;;;;;;;;;19.20;35.49;101824.33;101214;1356;61484;-80
2021/12/16 11:54:43;;;;;;;;;;;;;;;19.20;35.40;101821.33;101918;1356;72909;-80
2021/12/16 11:57:11;;;;;;;;;;;;;;;19.12;35.37;101824.36;101627;1361;299500;-81
2021/12/16 11:59:39;;;;;;;;;;;;;;;18.93;35.47;101827.38;102506;1352;59611;-82
2021/12/16 12:02:04;;;;;;;;;;;;;;;18.84;35.54;101829.51;102548;1350;60692;-81
2021/12/16 12:04:36;;;;;;;;;;;;;;;18.82;35.59;101831.97;102401;1357;58440;-83
2021/12/16 12:07:08;;;;;;;;;;;;;;;18.77;35.67;101833.05;102356;1351;75063;-81
2021/12/16 12:09:34;;;;;;;;;;;;;;;18.74;35.72;101836.39;102311;1353;59487;-82
2021/12/16 12:12:00;;;;;;;;;;;;;;;18.75;35.82;101832.61;102447;1350;60047;-81
2021/12/16 12:14:30;;;;;;;;;;;;;;;18.79;35.72;101834.77;102436;1349;59727;-81
2021/12/16 12:16:56;;;;;;;;;;;;;;;18.83;35.84;101831.16;102272;1349;74727;-81
2021/12/16 12:19:23;;;;;;;;;;;;;;;18.86;35.91;101825.54;102516;1353;58761;-81
2021/12/16 12:22:15;;;;;;;;;;;;;;;18.88;35.98;101826.15;101605;1354;60510;-81
2021/12/16 12:24:44;;;;;;;;;;;;;;;18.91;36.00;101825.86;101637;1352;74031;-80
2021/12/16 12:27:25;;;;;;;;;;;;;;;18.91;36.16;101819.42;101606;1351;74052;-82
2021/12/16 12:30:05;;;;;;;;;;;;;;;;;;;;;
2021/12/16 12:32:45;;;;;;;;;;;;;;;18.93;35.81;101808.65;101813;1351;61438;-80
2021/12/16 12:35:27;;;;;;;;;;;;;;;18.94;35.84;101807.89;101642;1355;73779;-81
2021/12/16 12:38:36;;;;;;;;;;;;;;;;;;;;;
2021/12/16 12:41:18;;;;;;;;;;;;;;;18.93;35.95;101811.13;101418;1354;60464;-82
2021/12/16 12:44:09;;;;;;;;;;;;;;;;;;;;;
2021/12/16 12:46:51;;;;;;;;;;;;;;;18.74;35.78;101806.62;101230;1353;73051;-82
2021/12/16 12:49:24;;;;;;;;;;;;;;;18.58;35.65;101811.80;101454;1353;74065;-83
2021/12/16 12:51:49;;;;;;;;;;;;;;;18.44;35.55;101810.26;101429;1358;60541;-83
2021/12/16 12:54:17;;;;;;;;;;;;;;;18.37;35.73;101813.24;101724;1358;59040;-82
2021/12/16 12:56:42;;;;;;;;;;;;;;;18.35;35.93;101812.25;101804;1354;72776;-82
2021/12/16 12:59:28;;;;;;;;;;;;;;;;;;;;;
2021/12/16 13:01:54;;;;;;;;;;;;;;;18.40;36.02;101813.84;101331;1354;61318;-80
2021/12/16 13:04:24;;;;;;;;;;;;;;;18.35;35.96;101808.48;101656;1354;60178;-79
2021/12/16 13:07:20;;;;;;;;;;;;;;;18.32;36.04;101809.55;101767;1354;73493;-80
2021/12/16 13:09:47;;;;;;;;;;;;;;;18.35;36.54;101812.09;101653;1354;75171;-83
2021/12/16 13:12:41;;;;;;;;;;;;;;;18.44;36.81;101811.89;101592;1354;61711;-83
2021/12/16 13:15:19;;;;;;;;;;;;;;;18.54;37.19;101815.73;102464;1357;59568;-83
2021/12/16 13:23:28;;;;;;;;;;;;;;;18.69;37.24;101814.30;102743;1352;59894;-80
2021/12/16 13:26:20;;;;;;;;;;;;;;;18.74;37.11;101815.02;102331;1351;61540;-79
2021/12/16 13:28:58;;;;;;;;;;;;;;;18.78;37.13;101811.60;101425;1350;73606;-82
2021/12/16 13:31:27;;;;;;;;;;;;;;;18.82;37.17;101812.65;101601;1350;74142;-80
2021/12/16 13:34:19;;;;;;;;;;;;;;;18.82;37.07;101807.49;101684;1350;60527;-81
2021/12/16 13:36:56;;;;;;;;;;;;;;;18.81;37.05;101800.77;101733;1349;60474;-80
2021/12/16 13:39:30;;;;;;;;;;;;;;;18.82;37.00;101806.27;102690;1350;72540;-81
2021/12/16 13:42:13;;;;;;;;;;;;;;;18.81;36.85;101802.73;102189;1350;60438;-81
2021/12/16 13:45:07;;;;;;;;;;;;;;;18.81;36.82;101802.18;101640;1350;60538;-81
2021/12/16 14:00:58;;;;;;;;;;;;;;;18.84;36.90;101804.39;101814;1355;61915;-81
2021/12/16 14:02:56;;;;;;;;;;;;;;;18.85;36.76;101809.16;101808;1356;72859;-81
2021/12/16 14:05:29;;;;;;;;;;;;;;;18.85;36.83;101809.15;102536;1350;74253;-81
2021/12/16 14:08:01;;;;;;;;;;;;;;;18.86;36.77;101813.76;101598;1351;60502;-81
2021/12/16 14:14:30;;;;;;;;;;;;;;;18.87;36.82;101818.70;101604;1350;71871;-81
2021/12/16 14:17:45;;;;;;;;;;;;;;;18.87;36.77;101819.56;101458;1357;74186;-80
2021/12/16 14:38:50;;;;;;;;;;;;;;;18.89;36.74;101815.95;98849;1393;61147;-80
2021/12/16 14:41:14;;;;;;;;;;;;;;;18.90;36.86;101816.27;98933;1390;73109;-81
2021/12/16 14:44:17;;;;;;;;;;;;;;;;;;;;;
2021/12/16 14:51:34;;;;;;;;;;;;;;;18.91;36.72;101821.02;98891;1393;60492;-82
2021/12/16 14:57:26;;;;;;;;;;;;;;;;;;;;;
2021/12/16 15:00:42;;;;;;;;;;;;;;;;;;;;;
2021/12/16 15:03:53;;;;;;;;;;;;;;;18.92;36.67;101826.89;98812;1383;60476;-81
2021/12/16 15:07:35;;;;;;;;;;;;;;;18.91;36.82;101826.73;99128;1382;74250;-83
2021/12/16 15:10:50;;;;;;;;;;;;;;;18.91;36.71;101834.20;100218;1371;73861;-83
2021/12/16 15:37:55;;;;;;;;;;;;;;;18.90;36.70;101836.25;99499;1378;72872;-82
2021/12/16 15:42:46;;;;;;;;;;;;;;;18.90;36.74;101829.46;99561;1378;60404;-82
2021/12/16 15:43:29;;;;;;;;;;;;;;;;;;;;;
2021/12/16 15:46:49;;;;;;;;;;;;;;;18.90;36.81;101833.92;99051;1385;73368;-82
2021/12/16 15:53:06;;;;;;;;;;;;;;;18.89;36.80;101830.20;99340;1384;60591;-82
2021/12/16 15:56:14;;;;;;;;;;;;;;;18.90;36.75;101827.15;99364;1379;61208;-83
2021/12/16 15:59:30;;;;;;;;;;;;;;;;;;;;;
2021/12/16 16:02:48;;;;;;;;;;;;;;;18.90;36.82;101826.80;99570;1381;72722;-82
2021/12/16 16:06:08;;;;;;;;;;;;;;;18.89;36.78;101822.89;100278;1374;60527;-82
2021/12/16 16:08:43;;;;;;;;;;;;;;;;;;;;;
2021/12/16 16:15:10;;;;;;;;;;;;;;;;;;;;;
2021/12/16 16:18:25;;;;;;;;;;;;;;;;;;;;;
2021/12/16 16:24:49;;;;;;;;;;;;;;;18.89;36.80;101817.20;99271;1381;73928;-82
2021/12/16 16:28:16;;;;;;;;;;;;;;;;;;;;;
2021/12/16 16:31:58;;;;;;;;;;;;;;;18.88;36.82;101814.02;98946;1394;60646;-82
2021/12/16 16:35:24;;;;;;;;;;;;;;;18.88;36.78;101814.74;98645;1396;60643;-82
2021/12/16 16:38:52;;;;;;;;;;;;;;;18.88;36.77;101814.92;97562;1403;71848;-82
2021/12/16 16:41:40;;;;;;;;;;;;;;;18.87;36.85;101809.93;97425;1411;72841;-81
2021/12/16 16:44:48;;;;;;;;;;;;;;;18.87;36.75;101806.55;97347;1406;60726;-82
2021/12/16 16:48:31;;;;;;;;;;;;;;;18.87;36.86;101811.37;96948;1416;62521;-82
2021/12/16 16:51:11;;;;;;;;;;;;;;;;;;;;;
2021/12/16 16:54:20;;;;;;;;;;;;;;;;;;;;;
2021/12/16 16:57:51;;;;;;;;;;;;;;;;;;;;;
2021/12/16 17:00:50;;;;;;;;;;;;;;;18.87;36.79;101796.21;96504;1412;61879;-82
2021/12/16 17:03:43;;;;;;;;;;;;;;;18.87;36.68;101792.30;96886;1414;73043;-83
2021/12/16 17:07:02;;;;;;;;;;;;;;;;;;;;;
2021/12/16 17:10:35;;;;;;;;;;;;;;;;;;;;;
2021/12/16 17:13:47;;;;;;;;;;;;;;;18.86;36.74;101795.70;97161;1410;60813;-82
2021/12/16 17:19:50;;;;;;;;;;;;;;;18.86;36.78;101791.80;97311;1411;72908;-82
2021/12/16 17:23:13;;;;;;;;;;;;;;;;;;;;;
2021/12/16 17:26:19;;;;;;;;;;;;;;;18.86;36.79;101784.33;98507;1394;62284;-82
2021/12/16 17:32:56;;;;;;;;;;;;;;;18.85;36.77;101774.52;98551;1391;73332;-82
2021/12/16 17:39:30;;;;;;;;;;;;;;;18.85;36.78;101774.20;98118;1405;61856;-82
2021/12/16 17:42:46;;;;;;;;;;;;;;;;;;;;;
2021/12/16 17:46:52;;;;;;;;;;;;;;;18.85;36.75;101768.13;97348;1412;74826;-82
2021/12/16 17:50:04;;;;;;;;;;;;;;;18.85;36.71;101756.89;97536;1405;60760;-82
2021/12/16 17:52:55;;;;;;;;;;;;;;;;;;;;;
2021/12/16 17:55:54;;;;;;;;;;;;;;;;;;;;;
2021/12/16 17:59:29;;;;;;;;;;;;;;;18.85;36.80;101761.73;97472;1406;75553;-83
2021/12/16 18:02:13;;;;;;;;;;;;;;;18.85;36.75;101756.55;97576;1402;60739;-83
2021/12/16 18:12:52;;;;;;;;;;;;;;;18.84;36.78;101761.03;96897;1411;72943;-82
2021/12/16 18:16:09;;;;;;;;;;;;;;;18.84;36.80;101758.00;97185;1411;61314;-83
2021/12/16 18:19:35;;;;;;;;;;;;;;;18.84;36.83;101757.98;97412;1406;60686;-83
2021/12/16 18:22:19;;;;;;;;;;;;;;;18.84;36.82;101755.15;97511;1404;71722;-82
2021/12/16 18:29:03;;;;;;;;;;;;;;;;;;;;;
2021/12/16 18:32:54;;;;;;;;;;;;;;;18.84;36.81;101746.05;97304;1412;60506;-84
2021/12/16 18:36:06;;;;;;;;;;;;;;;;;;;;;
2021/12/16 18:39:11;;;;;;;;;;;;;;;;;;;;;
2021/12/16 18:42:35;;;;;;;;;;;;;;;;;;;;;
2021/12/16 18:46:19;;;;;;;;;;;;;;;18.84;36.89;101736.98;97023;1414;60794;-82
2021/12/16 18:49:24;;;;;;;;;;;;;;;18.83;36.98;101735.02;97447;1407;74478;-82
2021/12/16 18:52:24;;;;;;;;;;;;;;;;;;;;;
2021/12/16 18:55:49;;;;;;;;;;;;;;;;;;;;;
2021/12/16 18:59:08;;;;;;;;;;;;;;;;;;;;;
2021/12/16 19:02:28;;;;;;;;;;;;;;;;;;;;;
2021/12/16 19:05:48;;;;;;;;;;;;;;;;;;;;;
2021/12/16 19:09:03;;;;;;;;;;;;;;;18.82;36.85;101715.46;98153;1405;60500;-83
2021/12/16 19:12:19;;;;;;;;;;;;;;;;;;;;;
2021/12/16 19:19:27;;;;;;;;;;;;;;;18.82;36.82;101709.42;97640;1408;74318;-83
2021/12/16 19:22:08;;;;;;;;;;;;;;;18.82;36.87;101710.30;97879;1402;60683;-83
2021/12/16 19:25:23;;;;;;;;;;;;;;;18.82;36.91;101709.58;97870;1407;62099;-83
2021/12/16 19:28:30;;;;;;;;;;;;;;;18.82;36.92;101709.41;97860;1407;71609;-83
2021/12/16 19:34:51;;;;;;;;;;;;;;;18.82;36.87;101702.65;96992;1414;61494;-83
2021/12/16 19:38:09;;;;;;;;;;;;;;;;;;;;;
2021/12/16 19:41:37;;;;;;;;;;;;;;;18.82;36.88;101700.70;96951;1417;71504;-82
2021/12/16 19:44:22;;;;;;;;;;;;;;;;;;;;;
2021/12/16 19:48:00;;;;;;;;;;;;;;;;;;;;;
2021/12/16 19:51:40;;;;;;;;;;;;;;;18.80;36.92;101699.86;98048;1404;60828;-82
2021/12/16 19:54:22;;;;;;;;;;;;;;;18.81;36.87;101696.83;97617;1403;71947;-83
2021/12/16 19:57:38;;;;;;;;;;;;;;;18.81;36.83;101696.99;94187;1406;5506890;-83
2021/12/16 20:01:32;;;;;;;;;;;;;;;18.80;36.90;101694.16;98061;1398;61085;-83
2021/12/16 20:04:23;;;;;;;;;;;;;;;18.80;36.88;101693.09;97589;1401;62043;-83
2021/12/16 20:07:39;;;;;;;;;;;;;;;18.80;36.97;101692.59;97495;1404;71682;-82
2021/12/16 20:11:14;;;;;;;;;;;;;;;18.80;36.78;101694.17;97414;1407;74037;-83
2021/12/16 20:14:08;;;;;;;;;;;;;;;;;;;;;
2021/12/16 20:17:25;;;;;;;;;;;;;;;;;;;;;
2021/12/16 20:20:52;;;;;;;;;;;;;;;;;;;;;
2021/12/16 20:24:19;;;;;;;;;;;;;;;18.80;36.95;101695.27;97080;1413;73151;-82
2021/12/16 20:27:15;;;;;;;;;;;;;;;;;;;;;
2021/12/16 20:30:20;;;;;;;;;;;;;;;;;;;;;
2021/12/16 20:33:35;;;;;;;;;;;;;;;;;;;;;
2021/12/16 20:40:34;;;;;;;;;;;;;;;18.79;36.89;101690.64;98605;1399;60612;-82
2021/12/16 20:43:24;;;;;;;;;;;;;;;18.79;36.95;101688.71;98432;1399;61711;-82
2021/12/16 20:46:08;;;;;;;;;;;;;;;18.79;36.86;101687.45;99008;1387;73156;-82
2021/12/16 20:49:41;;;;;;;;;;;;;;;18.78;36.90;101681.79;98595;1401;75604;-82
2021/12/16 20:53:11;;;;;;;;;;;;;;;18.79;36.88;101679.96;98461;1402;60753;-82
2021/12/16 21:02:19;;;;;;;;;;;;;;;;;;;;;
2021/12/16 21:05:20;;;;;;;;;;;;;;;18.78;36.99;101679.10;97276;1405;60454;-79
2021/12/16 21:08:37;;;;;;;;;;;;;;;;;;;;;
2021/12/16 21:11:48;;;;;;;;;;;;;;;18.78;36.99;101680.90;97563;1410;71663;-81
2021/12/16 21:14:58;;;;;;;;;;;;;;;;;;;;;
2021/12/16 21:18:15;;;;;;;;;;;;;;;;;;;;;
2021/12/16 21:21:14;;;;;;;;;;;;;;;;;;;;;
2021/12/16 21:24:19;;;;;;;;;;;;;;;;;;;;;
2021/12/16 21:27:27;;;;;;;;;;;;;;;;;;;;;
2021/12/16 21:30:35;;;;;;;;;;;;;;;;;;;;;
2021/12/16 21:34:27;;;;;;;;;;;;;;;;;;;;;
2021/12/16 21:37:58;;;;;;;;;;;;;;;18.78;36.94;101678.40;98727;1392;74167;-83
2021/12/16 21:40:49;;;;;;;;;;;;;;;;;;;;;
2021/12/16 21:44:52;;;;;;;;;;;;;;;18.78;36.99;101660.39;98702;1397;61723;-83
2021/12/16 21:47:53;;;;;;;;;;;;;;;;;;;;;
2021/12/16 21:51:02;;;;;;;;;;;;;;;;;;;;;
2021/12/16 21:57:25;;;;;;;;;;;;;;;18.77;36.94;101647.23;97931;1399;61791;-81
2021/12/16 22:00:25;;;;;;;;;;;;;;;18.77;36.90;101645.80;97503;1410;61720;-82
2021/12/16 22:03:42;;;;;;;;;;;;;;;;;;;;;
2021/12/16 22:06:20;;;;;;;;;;;;;;;18.76;36.99;101644.75;97913;1399;74202;-82
2021/12/16 22:09:58;;;;;;;;;;;;;;;;;;;;;
2021/12/16 22:12:53;;;;;;;;;;;;;;;;;;;;;
2021/12/16 22:15:57;;;;;;;;;;;;;;;18.76;37.00;101632.10;97732;1405;73750;-81
2021/12/16 22:19:12;;;;;;;;;;;;;;;18.76;37.06;101619.81;97755;1406;73996;-80
2021/12/16 22:22:18;;;;;;;;;;;;;;;18.76;37.08;101626.73;98518;1400;60955;-83
2021/12/16 22:25:55;;;;;;;;;;;;;;;;;;;;;
2021/12/16 22:28:50;;;;;;;;;;;;;;;;;;;;;
2021/12/16 22:31:59;;;;;;;;;;;;;;;18.76;36.93;101621.95;98609;1393;73388;-81
2021/12/16 22:35:24;;;;;;;;;;;;;;;;;;;;;
2021/12/16 22:38:39;;;;;;;;;;;;;;;18.75;36.97;101626.27;98215;1399;60861;-82
2021/12/16 22:42:14;;;;;;;;;;;;;;;18.74;37.03;101617.92;98346;1402;72953;-82
2021/12/16 22:45:03;;;;;;;;;;;;;;;;;;;;;
2021/12/16 22:48:36;;;;;;;;;;;;;;;18.74;37.00;101604.38;98648;1398;60571;-83
2021/12/16 22:51:28;;;;;;;;;;;;;;;;;;;;;
2021/12/16 22:54:43;;;;;;;;;;;;;;;18.74;37.02;101589.07;98512;1400;75828;-83
2021/12/16 22:57:59;;;;;;;;;;;;;;;;;;;;;
2021/12/16 23:01:36;;;;;;;;;;;;;;;;;;;;;
2021/12/16 23:04:55;;;;;;;;;;;;;;;18.73;37.00;101591.59;97925;1407;60697;-83